Time;durP1;ratioP1;P1;durP2;ratioP2;P2;SDS_P1;SDS_P2;PMS_P1;PMS_P2;Temp;Humidity;BMP_temperature;BMP_pressure;BME280_temperature;BME280_humidity;BME280_pressure;Samples;Min_cycle;Max_cycle;Signal;HPM_P1;HPM_P2
2021/06/03 00:01:18;;;;;;;5.25;4.85;;;17.40;99.90;;;;;;5044640;28;20194;-72
2021/06/03 00:03:45;;;;;;;4.90;4.50;;;17.40;99.90;;;;;;5047800;22;20297;-76
2021/06/03 00:06:11;;;;;;;4.28;3.97;;;17.30;99.90;;;;;;5002477;28;20658;-76
2021/06/03 00:08:39;;;;;;;4.68;4.28;;;17.30;99.90;;;;;;5004048;28;20239;-76
2021/06/03 00:11:09;;;;;;;4.43;4.03;;;17.30;99.90;;;;;;5002963;28;20246;-76
2021/06/03 00:13:38;;;;;;;4.05;3.75;;;17.30;99.90;;;;;;5007507;28;20282;-75
2021/06/03 00:16:07;;;;;;;5.10;4.70;;;17.30;99.90;;;;;;5007070;28;20580;-76
2021/06/03 00:18:34;;;;;;;4.32;4.03;;;17.30;99.90;;;;;;5004870;28;20637;-76
2021/06/03 00:21:01;;;;;;;4.43;4.13;;;17.30;99.90;;;;;;5005938;28;20249;-75
2021/06/03 00:23:27;;;;;;;4.80;4.40;;;17.30;99.90;;;;;;5006448;28;20224;-75
2021/06/03 00:25:55;;;;;;;4.60;4.22;;;17.20;99.90;;;;;;5004804;28;20195;-76
2021/06/03 00:28:22;;;;;;;4.72;4.32;;;17.20;99.90;;;;;;5005550;28;20746;-75
2021/06/03 00:30:48;;;;;;;4.95;4.55;;;17.20;99.90;;;;;;5008166;28;20215;-75
2021/06/03 00:33:16;;;;;;;4.63;4.25;;;17.20;99.90;;;;;;4997004;28;20221;-75
2021/06/03 00:35:43;;;;;;;4.93;4.50;;;17.10;99.90;;;;;;4988144;28;20193;-76
2021/06/03 00:38:10;;;;;;;5.18;4.78;;;17.10;99.90;;;;;;4985089;28;20224;-76
2021/06/03 00:40:38;;;;;;;4.63;4.28;;;17.00;99.90;;;;;;4983019;28;20196;-75
2021/06/03 00:43:06;;;;;;;4.50;4.18;;;17.00;99.90;;;;;;4989693;28;20242;-76
2021/06/03 00:45:35;;;;;;;4.28;3.88;;;17.00;99.90;;;;;;5001539;28;20695;-76
2021/06/03 00:48:02;;;;;;;4.43;4.07;;;17.00;99.90;;;;;;5004957;28;20226;-76
2021/06/03 00:50:32;;;;;;;4.70;4.30;;;17.00;99.90;;;;;;5003590;28;20223;-75
2021/06/03 00:53:01;;;;;;;4.38;4.00;;;17.00;99.90;;;;;;4996628;28;20282;-75
2021/06/03 00:55:28;;;;;;;4.65;4.25;;;16.90;99.90;;;;;;4989198;28;20200;-76
2021/06/03 00:57:55;;;;;;;5.50;5.00;;;16.90;99.90;;;;;;4989577;28;20298;-76
2021/06/03 01:00:23;;;;;;;4.88;4.47;;;16.90;99.90;;;;;;5003711;28;20200;-76
2021/06/03 01:02:50;;;;;;;5.00;4.60;;;16.90;99.90;;;;;;5006004;28;20706;-75
2021/06/03 01:05:20;;;;;;;5.63;5.13;;;16.80;99.90;;;;;;5004923;28;20203;-76
2021/06/03 01:07:48;;;;;;;5.45;5.05;;;16.80;99.90;;;;;;5001979;28;20598;-76
2021/06/03 01:10:20;;;;;;;5.30;4.80;;;16.70;99.90;;;;;;5003805;28;20224;-75
2021/06/03 01:12:52;;;;;;;4.63;4.22;;;16.70;99.90;;;;;;5003708;28;20215;-76
2021/06/03 01:15:20;;;;;;;4.47;4.07;;;16.60;99.90;;;;;;5003394;28;20579;-76
2021/06/03 01:17:48;;;;;;;4.70;4.30;;;16.60;99.90;;;;;;5000446;28;20220;-75
2021/06/03 01:20:16;;;;;;;4.55;4.25;;;16.50;99.90;;;;;;5001510;28;20196;-76
2021/06/03 01:22:53;;;;;;;4.50;4.20;;;16.50;99.90;;;;;;5000223;28;20219;-76
2021/06/03 01:25:24;;;;;;;4.90;4.50;;;16.40;99.90;;;;;;4985067;28;20200;-76
2021/06/03 01:27:52;;;;;;;4.60;4.30;;;16.40;99.90;;;;;;4984499;28;20303;-76
2021/06/03 01:30:22;;;;;;;4.60;4.20;;;16.30;99.90;;;;;;4985993;28;20287;-75
2021/06/03 01:32:52;;;;;;;5.13;4.72;;;16.30;99.90;;;;;;4983796;28;20224;-75
2021/06/03 01:35:21;;;;;;;5.07;4.68;;;16.20;99.90;;;;;;5006071;28;20207;-76
2021/06/03 01:37:49;;;;;;;4.53;4.20;;;16.10;99.90;;;;;;5003683;28;20224;-76
2021/06/03 01:40:17;;;;;;;4.82;4.47;;;16.10;99.90;;;;;;5000902;28;20243;-75
2021/06/03 01:42:47;;;;;;;5.07;4.63;;;16.10;99.90;;;;;;5001137;28;20238;-75
2021/06/03 01:45:15;;;;;;;5.10;4.50;;;16.10;99.90;;;;;;5006686;28;20208;-75
2021/06/03 01:47:43;;;;;;;5.03;4.63;;;16.10;99.90;;;;;;5009110;28;20212;-75
2021/06/03 01:50:11;;;;;;;4.38;4.07;;;16.10;99.90;;;;;;5008851;28;20220;-74
2021/06/03 01:52:39;;;;;;;4.35;4.05;;;16.10;99.90;;;;;;5008544;28;20239;-75
2021/06/03 01:55:09;;;;;;;4.57;4.22;;;16.10;99.90;;;;;;5004337;28;20721;-75
2021/06/03 01:57:37;;;;;;;4.35;3.95;;;16.10;99.90;;;;;;5005770;28;20622;-75
2021/06/03 02:00:09;;;;;;;4.30;4.00;;;16.10;99.90;;;;;;5006319;28;20609;-73
2021/06/03 02:02:35;;;;;;;4.82;4.43;;;16.20;99.90;;;;;;5006732;28;20199;-74
2021/06/03 02:05:03;;;;;;;4.40;4.10;;;16.20;99.90;;;;;;5007134;28;20210;-75
2021/06/03 02:07:29;;;;;;;4.65;4.25;;;16.10;99.90;;;;;;5006889;28;20215;-76
2021/06/03 02:09:56;;;;;;;4.68;4.38;;;16.10;99.90;;;;;;5008390;28;20224;-76
2021/06/03 02:12:24;;;;;;;4.78;4.40;;;16.10;99.90;;;;;;5008781;28;20196;-75
2021/06/03 02:14:53;;;;;;;4.40;4.10;;;16.10;99.90;;;;;;5003246;28;20220;-75
2021/06/03 02:17:23;;;;;;;4.40;4.00;;;16.10;99.90;;;;;;5001972;28;20243;-77
2021/06/03 02:19:54;;;;;;;4.50;4.20;;;16.10;99.90;;;;;;5007061;28;20224;-76
2021/06/03 02:22:22;;;;;;;4.82;4.43;;;16.10;99.90;;;;;;5007381;28;20205;-76
2021/06/03 02:24:49;;;;;;;4.85;4.45;;;16.10;99.90;;;;;;5005843;28;20225;-76
2021/06/03 02:27:17;;;;;;;4.35;4.05;;;16.20;99.90;;;;;;4988681;28;20283;-75
2021/06/03 02:29:45;;;;;;;4.13;3.83;;;16.20;99.90;;;;;;4987854;28;20231;-74
2021/06/03 02:32:13;;;;;;;4.63;4.30;;;16.10;99.90;;;;;;4987222;28;20198;-75
2021/06/03 02:34:42;;;;;;;5.50;4.38;;;16.10;99.90;;;;;;4989804;28;20229;-77
2021/06/03 02:37:10;;;;;;;4.82;4.43;;;16.10;99.90;;;;;;4993495;28;20209;-76
2021/06/03 02:39:37;;;;;;;4.22;3.80;;;16.10;99.90;;;;;;4990475;28;20223;-75
2021/06/03 02:42:04;;;;;;;4.40;4.10;;;16.10;99.90;;;;;;4994033;28;20207;-76
2021/06/03 02:44:33;;;;;;;4.60;4.20;;;16.10;99.90;;;;;;5001128;28;20224;-76
2021/06/03 02:47:00;;;;;;;4.80;4.30;;;16.00;99.90;;;;;;5009071;28;20667;-75
2021/06/03 02:49:26;;;;;;;4.50;4.20;;;16.00;99.90;;;;;;5003075;28;20224;-76
2021/06/03 02:51:54;;;;;;;4.78;4.38;;;16.00;99.90;;;;;;5004583;28;20215;-76
2021/06/03 02:54:21;;;;;;;4.95;4.55;;;16.00;99.90;;;;;;5004316;28;20640;-76
2021/06/03 02:56:48;;;;;;;4.65;4.35;;;15.90;99.90;;;;;;5007900;28;20686;-75
2021/06/03 02:59:14;;;;;;;5.15;4.80;;;15.90;99.90;;;;;;5010146;28;20228;-73
2021/06/03 03:01:41;;;;;;;4.78;4.38;;;15.90;99.90;;;;;;5009638;28;20204;-76
2021/06/03 03:04:08;;;;;;;4.32;4.03;;;15.90;99.90;;;;;;5006604;28;20278;-76
2021/06/03 03:06:34;;;;;;;4.63;4.32;;;15.90;99.90;;;;;;5007613;28;20875;-76
2021/06/03 03:09:03;;;;;;;4.80;4.40;;;15.90;99.90;;;;;;5006000;28;20444;-76
2021/06/03 03:11:29;;;;;;;4.38;4.07;;;15.90;99.90;;;;;;5008516;28;20224;-75
2021/06/03 03:13:56;;;;;;;5.03;4.63;;;15.90;99.90;;;;;;5006080;28;20223;-76
2021/06/03 03:16:23;;;;;;;4.03;3.72;;;15.90;99.90;;;;;;5006734;28;20204;-75
2021/06/03 03:18:50;;;;;;;4.30;4.00;;;15.90;99.90;;;;;;5004200;28;20221;-76
2021/06/03 03:21:17;;;;;;;4.32;4.03;;;15.90;99.90;;;;;;5002798;28;20204;-76
2021/06/03 03:23:44;;;;;;;4.57;4.28;;;15.90;99.90;;;;;;5008417;28;20224;-74
2021/06/03 03:26:12;;;;;;;4.75;4.35;;;15.90;99.90;;;;;;5003692;28;20423;-75
2021/06/03 03:28:38;;;;;;;4.13;3.83;;;15.90;99.90;;;;;;5003379;28;20239;-76
2021/06/03 03:31:05;;;;;;;4.72;4.32;;;15.90;99.90;;;;;;5005070;28;20223;-76
2021/06/03 03:33:32;;;;;;;4.85;4.55;;;15.90;99.90;;;;;;5002600;28;20594;-75
2021/06/03 03:35:59;;;;;;;4.90;4.50;;;15.80;99.90;;;;;;5005610;28;20591;-76
2021/06/03 03:38:25;;;;;;;4.80;4.43;;;15.80;99.90;;;;;;5006794;28;20624;-76
2021/06/03 03:40:53;;;;;;;4.75;4.35;;;15.80;99.90;;;;;;5006105;28;20197;-76
2021/06/03 03:43:21;;;;;;;4.80;4.40;;;15.80;99.90;;;;;;5003836;28;20224;-76
2021/06/03 03:45:48;;;;;;;5.32;4.82;;;15.80;99.90;;;;;;5005451;28;20963;-75
2021/06/03 03:48:15;;;;;;;5.30;4.85;;;15.70;99.90;;;;;;5004540;28;20228;-76
2021/06/03 03:50:42;;;;;;;4.72;4.32;;;15.70;99.90;;;;;;5006239;28;20224;-75
2021/06/03 03:53:08;;;;;;;5.05;4.65;;;15.70;99.90;;;;;;5008021;28;21739;-75
2021/06/03 03:55:36;;;;;;;4.30;4.00;;;15.70;99.90;;;;;;5004951;28;20246;-75
2021/06/03 03:58:03;;;;;;;4.80;4.40;;;15.70;99.90;;;;;;5002461;28;21017;-76
2021/06/03 04:00:34;;;;;;;5.22;4.82;;;15.70;99.90;;;;;;5005364;28;20255;-76
2021/06/03 04:03:02;;;;;;;4.80;4.40;;;15.80;99.90;;;;;;5004615;28;20558;-75
2021/06/03 04:05:29;;;;;;;4.88;4.47;;;15.80;99.90;;;;;;5004757;28;20670;-75
2021/06/03 04:07:56;;;;;;;4.63;4.30;;;15.80;99.90;;;;;;5004779;28;20200;-76
2021/06/03 04:10:23;;;;;;;5.10;4.70;;;15.80;99.90;;;;;;5004270;28;20215;-76
2021/06/03 04:12:51;;;;;;;5.05;4.65;;;15.90;99.90;;;;;;5001451;28;20200;-76
2021/06/03 04:15:19;;;;;;;4.40;4.10;;;16.00;99.90;;;;;;5003320;28;20584;-75
2021/06/03 04:17:47;;;;;;;5.03;4.63;;;16.00;99.90;;;;;;5005268;28;20615;-75
2021/06/03 04:20:17;;;;;;;5.18;4.75;;;16.00;99.90;;;;;;5005763;28;20220;-73
2021/06/03 04:22:44;;;;;;;4.60;4.22;;;16.00;99.90;;;;;;5004916;28;20232;-75
2021/06/03 04:25:11;;;;;;;4.43;4.03;;;16.00;99.90;;;;;;5006583;28;20645;-75
2021/06/03 04:27:38;;;;;;;7.15;4.03;;;16.10;99.90;;;;;;5006504;28;20509;-77
2021/06/03 04:30:08;;;;;;;3.90;3.60;;;16.20;99.90;;;;;;5002693;28;20220;-76
2021/06/03 04:32:35;;;;;;;3.83;3.53;;;16.40;99.90;;;;;;5005726;28;20294;-74
2021/06/03 04:35:04;;;;;;;4.70;3.50;;;16.50;99.90;;;;;;5004716;28;20216;-77
2021/06/03 04:37:31;;;;;;;3.40;3.10;;;16.70;99.90;;;;;;5001599;28;20196;-77
2021/06/03 04:39:58;;;;;;;4.35;3.95;;;16.80;99.90;;;;;;5006806;28;20678;-77
2021/06/03 04:42:25;;;;;;;4.57;4.18;;;16.90;99.90;;;;;;5003121;28;20218;-78
2021/06/03 04:44:51;;;;;;;4.55;4.15;;;16.90;99.90;;;;;;5003718;28;20776;-78
2021/06/03 04:47:18;;;;;;;3.90;3.60;;;16.90;99.90;;;;;;5005504;28;20200;-77
2021/06/03 04:49:44;;;;;;;4.80;4.40;;;17.10;99.90;;;;;;5002643;28;20227;-76
2021/06/03 04:52:25;;;;;;;4.35;4.05;;;17.20;99.90;;;;;;5008671;28;20235;-77
2021/06/03 04:54:53;;;;;;;4.35;4.00;;;17.30;99.90;;;;;;5007679;28;20226;-77
2021/06/03 04:57:20;;;;;;;3.95;3.65;;;17.40;99.90;;;;;;5007634;28;20200;-76
2021/06/03 04:59:46;;;;;;;3.67;3.38;;;17.60;99.90;;;;;;5009123;28;20227;-78
2021/06/03 05:02:13;;;;;;;4.07;3.78;;;17.90;99.90;;;;;;5007373;28;20203;-77
2021/06/03 05:04:39;;;;;;;4.20;3.90;;;18.10;99.90;;;;;;5003231;28;20682;-78
2021/06/03 05:07:06;;;;;;;4.22;3.92;;;18.20;99.90;;;;;;5004683;28;20200;-77
2021/06/03 05:09:34;;;;;;;4.10;3.72;;;18.40;99.90;;;;;;5003910;28;20232;-77
2021/06/03 05:12:01;;;;;;;4.55;4.25;;;18.50;99.90;;;;;;5005754;28;20638;-77
2021/06/03 05:14:27;;;;;;;4.07;3.78;;;18.60;99.90;;;;;;5003768;28;20225;-77
2021/06/03 05:16:54;;;;;;;4.20;3.90;;;18.70;99.90;;;;;;5007461;28;20219;-77
2021/06/03 05:19:21;;;;;;;4.45;4.15;;;18.70;99.90;;;;;;5009804;28;20220;-76
2021/06/03 05:21:47;;;;;;;4.15;3.85;;;18.80;99.90;;;;;;5009620;28;20570;-77
2021/06/03 05:24:14;;;;;;;4.78;4.35;;;18.90;99.90;;;;;;5014617;28;20220;-77
2021/06/03 05:26:42;;;;;;;4.28;3.97;;;18.90;99.90;;;;;;5013622;28;20286;-77
2021/06/03 05:29:14;;;;;;;4.30;4.00;;;19.00;99.90;;;;;;5013585;28;20761;-79
2021/06/03 05:31:41;;;;;;;4.97;4.57;;;19.10;99.90;;;;;;5013160;28;20339;-77
2021/06/03 05:34:07;;;;;;;5.13;4.72;;;19.20;99.90;;;;;;5011424;28;20830;-76
2021/06/03 05:36:34;;;;;;;4.55;4.15;;;19.30;99.90;;;;;;5007096;28;20193;-78
2021/06/03 05:39:01;;;;;;;4.15;3.78;;;19.40;99.90;;;;;;5009447;28;20230;-77
2021/06/03 05:41:27;;;;;;;4.45;4.15;;;19.50;99.90;;;;;;5011935;28;20200;-78
2021/06/03 05:43:55;;;;;;;4.85;4.45;;;19.60;99.90;;;;;;5010181;28;20604;-77
2021/06/03 05:46:22;;;;;;;4.78;4.38;;;19.60;99.90;;;;;;5006577;28;20581;-77
2021/06/03 05:48:49;;;;;;;4.78;4.25;;;19.60;99.90;;;;;;5008310;28;20224;-77
2021/06/03 05:51:16;;;;;;;6.28;4.63;;;19.60;99.90;;;;;;5010575;28;20223;-76
2021/06/03 05:53:42;;;;;;;5.13;4.72;;;19.40;99.90;;;;;;5008895;28;20227;-78
2021/06/03 05:56:09;;;;;;;4.90;4.53;;;19.30;99.90;;;;;;5010019;28;20287;-78
2021/06/03 05:58:35;;;;;;;5.78;5.28;;;19.20;99.90;;;;;;5008701;28;20745;-77
2021/06/03 06:01:04;;;;;;;5.57;5.07;;;19.20;99.90;;;;;;5006172;28;20193;-77
2021/06/03 06:03:37;;;;;;;5.38;4.43;;;19.20;99.90;;;;;;5010796;28;20682;-77
2021/06/03 06:06:23;;;;;;;5.38;4.97;;;19.20;99.90;;;;;;5096738;23;20796;-75
2021/06/03 06:08:49;;;;;;;5.22;4.72;;;19.20;99.90;;;;;;5026762;28;20320;-76
2021/06/03 06:11:16;;;;;;;5.65;5.25;;;19.20;99.90;;;;;;5028473;28;20228;-76
2021/06/03 06:13:44;;;;;;;5.28;4.88;;;19.20;99.90;;;;;;5025577;28;20227;-76
2021/06/03 06:16:13;;;;;;;5.90;5.40;;;19.20;99.90;;;;;;5022146;28;20215;-76
2021/06/03 06:18:41;;;;;;;5.97;5.45;;;19.20;99.90;;;;;;5027768;28;20712;-76
2021/06/03 06:21:09;;;;;;;6.25;5.75;;;19.20;99.90;;;;;;5041171;28;20187;-76
2021/06/03 06:23:37;;;;;;;6.25;5.75;;;19.20;99.90;;;;;;5053806;28;20238;-76
2021/06/03 06:26:04;;;;;;;5.45;4.95;;;19.20;99.90;;;;;;5051170;28;20716;-76
2021/06/03 06:28:31;;;;;;;6.07;5.63;;;19.30;99.90;;;;;;5041846;28;20231;-76
2021/06/03 06:30:58;;;;;;;5.70;5.18;;;19.40;99.90;;;;;;5044721;28;20231;-76
2021/06/03 06:33:26;;;;;;;5.93;5.43;;;19.40;99.90;;;;;;5045645;28;20203;-76
2021/06/03 06:35:53;;;;;;;5.55;5.05;;;19.50;99.90;;;;;;5043713;28;20219;-76
2021/06/03 06:38:22;;;;;;;5.07;4.68;;;19.50;99.90;;;;;;5054436;28;20196;-76
2021/06/03 06:40:50;;;;;;;5.53;5.03;;;19.40;99.90;;;;;;5039454;28;20195;-76
2021/06/03 06:43:17;;;;;;;5.30;4.70;;;19.50;99.90;;;;;;5043584;28;20203;-76
2021/06/03 06:45:45;;;;;;;5.18;4.78;;;19.60;99.90;;;;;;5043422;28;20226;-76
2021/06/03 06:48:14;;;;;;;6.28;5.75;;;19.70;99.90;;;;;;5043895;28;20591;-76
2021/06/03 06:50:43;;;;;;;6.13;5.53;;;19.80;99.90;;;;;;5041650;28;20639;-75
2021/06/03 06:53:10;;;;;;;6.07;5.25;;;19.90;99.90;;;;;;5033263;28;20693;-74
2021/06/03 06:55:38;;;;;;;5.00;4.60;;;20.00;99.90;;;;;;5038358;28;20571;-75
2021/06/03 06:58:05;;;;;;;5.43;4.90;;;20.10;99.90;;;;;;5043467;28;20684;-75
2021/06/03 07:00:34;;;;;;;5.82;5.32;;;20.20;99.90;;;;;;5040232;28;20219;-76
2021/06/03 07:03:00;;;;;;;6.10;4.45;;;20.20;99.90;;;;;;5041421;28;20199;-76
2021/06/03 07:05:28;;;;;;;6.15;5.55;;;20.20;99.90;;;;;;5044345;28;20732;-76
2021/06/03 07:07:56;;;;;;;5.85;5.43;;;20.30;99.90;;;;;;5042904;28;20554;-77
2021/06/03 07:10:23;;;;;;;4.95;4.55;;;20.30;99.90;;;;;;5049141;28;20988;-76
2021/06/03 07:12:50;;;;;;;5.30;4.90;;;20.40;99.90;;;;;;5041695;28;20241;-77
2021/06/03 07:15:18;;;;;;;5.95;5.45;;;20.40;99.90;;;;;;5039767;28;20230;-77
2021/06/03 07:17:45;;;;;;;6.25;4.90;;;20.60;99.90;;;;;;5042931;28;20203;-76
2021/06/03 07:20:14;;;;;;;5.15;4.75;;;20.70;99.90;;;;;;5042875;28;20644;-77
2021/06/03 07:22:43;;;;;;;6.40;5.15;;;20.80;99.90;;;;;;5039130;28;20195;-77
2021/06/03 07:25:13;;;;;;;5.40;4.70;;;21.10;99.90;;;;;;5038036;28;20277;-76
2021/06/03 07:27:41;;;;;;;5.97;5.47;;;21.30;99.90;;;;;;5036429;28;20199;-77
2021/06/03 07:30:11;;;;;;;6.60;5.70;;;21.30;99.90;;;;;;5045103;28;20223;-76
2021/06/03 07:32:38;;;;;;;6.20;5.70;;;21.30;99.90;;;;;;5049731;28;20207;-76
2021/06/03 07:35:09;;;;;;;5.78;5.30;;;21.40;99.90;;;;;;5040953;28;20301;-77
2021/06/03 07:37:36;;;;;;;5.78;5.28;;;21.50;99.90;;;;;;5038003;28;20680;-77
2021/06/03 07:40:03;;;;;;;4.70;4.22;;;21.60;99.90;;;;;;5038989;28;20364;-77
2021/06/03 07:42:31;;;;;;;5.40;4.90;;;21.90;99.90;;;;;;5040299;28;20289;-77
2021/06/03 07:44:58;;;;;;;5.55;5.05;;;22.00;99.90;;;;;;5040429;28;20218;-76
2021/06/03 07:47:25;;;;;;;4.75;4.35;;;22.00;99.90;;;;;;5039916;28;20226;-76
2021/06/03 07:49:51;;;;;;;5.50;5.00;;;22.10;99.90;;;;;;5041206;28;20265;-76
2021/06/03 07:52:18;;;;;;;4.90;4.50;;;22.10;99.90;;;;;;5036240;28;20208;-76
2021/06/03 07:54:45;;;;;;;5.22;4.72;;;22.10;99.90;;;;;;5058556;28;20237;-77
2021/06/03 07:57:11;;;;;;;5.82;5.18;;;22.20;99.90;;;;;;5045953;28;20218;-76
2021/06/03 07:59:39;;;;;;;6.32;4.93;;;22.30;99.90;;;;;;5045835;28;20215;-76
2021/06/03 08:02:06;;;;;;;5.95;5.22;;;22.40;99.90;;;;;;5039787;28;20191;-76
2021/06/03 08:04:33;;;;;;;4.93;4.53;;;22.50;99.90;;;;;;5040699;28;20223;-78
2021/06/03 08:06:59;;;;;;;4.80;4.40;;;22.50;99.90;;;;;;5039791;28;20195;-76
2021/06/03 08:09:26;;;;;;;5.15;4.75;;;22.60;99.90;;;;;;5042370;28;20654;-76
2021/06/03 08:11:52;;;;;;;5.22;4.72;;;22.50;99.90;;;;;;5040352;28;20223;-76
2021/06/03 08:14:19;;;;;;;5.15;4.68;;;22.60;99.90;;;;;;5038980;28;20211;-77
2021/06/03 08:16:47;;;;;;;4.70;4.30;;;22.70;99.90;;;;;;5040699;28;20202;-76
2021/06/03 08:19:15;;;;;;;4.28;3.97;;;22.80;99.90;;;;;;5040352;28;20234;-77
2021/06/03 08:21:42;;;;;;;5.18;4.68;;;22.90;99.90;;;;;;5039604;28;20576;-76
2021/06/03 08:24:09;;;;;;;4.95;4.55;;;23.10;99.90;;;;;;5052964;28;20215;-77
2021/06/03 08:26:35;;;;;;;4.88;4.45;;;23.10;99.90;;;;;;5041409;28;20238;-76
2021/06/03 08:29:02;;;;;;;4.45;4.05;;;23.00;99.90;;;;;;5038621;28;20314;-76
2021/06/03 08:31:29;;;;;;;5.80;5.20;;;23.00;99.90;;;;;;5044057;28;20231;-76
2021/06/03 08:34:02;;;;;;;4.75;4.35;;;23.00;99.90;;;;;;5036890;28;20224;-77
2021/06/03 08:36:29;;;;;;;5.22;4.82;;;23.10;99.90;;;;;;5040349;28;20219;-76
2021/06/03 08:38:56;;;;;;;5.53;5.13;;;23.20;99.90;;;;;;5043941;28;20226;-76
2021/06/03 08:41:23;;;;;;;5.43;4.72;;;23.30;99.90;;;;;;5050513;28;20191;-76
2021/06/03 08:43:50;;;;;;;5.43;5.03;;;23.40;99.90;;;;;;5036941;28;20622;-76
2021/06/03 08:46:17;;;;;;;4.93;4.50;;;23.50;99.90;;;;;;5045118;28;20957;-77
2021/06/03 08:48:46;;;;;;;4.90;4.50;;;23.70;99.90;;;;;;5038358;28;20229;-77
2021/06/03 08:51:14;;;;;;;4.63;4.22;;;23.80;99.90;;;;;;5045513;28;20219;-74
2021/06/03 08:53:40;;;;;;;4.82;4.43;;;23.70;99.90;;;;;;5037233;28;20732;-76
2021/06/03 08:56:17;;;;;;;4.93;4.63;;;23.80;99.90;;;;;;5041653;28;20214;-76
2021/06/03 08:58:46;;;;;;;6.15;4.47;;;23.80;99.90;;;;;;5047889;28;20234;-78
2021/06/03 09:01:14;;;;;;;5.13;4.50;;;24.00;99.90;;;;;;5055442;28;20229;-77
2021/06/03 09:03:41;;;;;;;5.32;4.82;;;24.10;99.90;;;;;;5045905;28;20575;-76
2021/06/03 09:06:09;;;;;;;4.47;4.07;;;24.30;99.90;;;;;;5048153;28;20573;-76
2021/06/03 09:08:39;;;;;;;5.03;4.72;;;24.40;99.90;;;;;;5039829;28;20198;-76
2021/06/03 09:11:08;;;;;;;5.35;4.55;;;24.20;99.90;;;;;;5045692;28;20218;-76
2021/06/03 09:13:36;;;;;;;5.45;4.75;;;24.20;99.90;;;;;;5049329;28;20242;-76
2021/06/03 09:16:17;;;;;;;5.57;5.07;;;24.30;99.90;;;;;;5054002;28;20215;-77
2021/06/03 09:18:45;;;;;;;5.30;4.80;;;24.70;99.90;;;;;;5057840;28;20198;-76
2021/06/03 09:21:15;;;;;;;7.10;4.88;;;24.80;99.90;;;;;;5050569;28;20191;-75
2021/06/03 09:23:44;;;;;;;8.32;5.07;;;24.70;99.90;;;;;;5048607;28;20199;-76
2021/06/03 09:26:12;;;;;;;6.43;5.10;;;24.60;99.90;;;;;;5070539;28;20231;-75
2021/06/03 09:28:42;;;;;;;4.68;4.28;;;24.50;99.90;;;;;;5051093;28;20211;-75
2021/06/03 09:31:19;;;;;;;5.32;4.85;;;24.70;99.90;;;;;;5044919;28;20225;-75
2021/06/03 09:33:56;;;;;;;5.55;4.93;;;24.90;99.90;;;;;;5046899;28;20436;-76
2021/06/03 09:36:35;;;;;;;5.05;3.97;;;25.10;99.90;;;;;;5037304;28;20226;-76
2021/06/03 09:39:19;;;;;;;4.53;4.10;;;25.20;99.90;;;;;;5044660;28;20738;-76
2021/06/03 09:41:48;;;;;;;6.82;4.80;;;25.20;99.90;;;;;;5049994;28;20210;-76
2021/06/03 09:44:22;;;;;;;5.53;5.03;;;25.40;99.90;;;;;;5041828;28;20204;-75
2021/06/03 09:46:51;;;;;;;5.65;5.10;;;25.40;99.90;;;;;;5043671;28;20219;-76
2021/06/03 09:49:21;;;;;;;5.32;4.85;;;25.40;99.90;;;;;;5044534;28;20198;-76
2021/06/03 09:51:50;;;;;;;6.90;4.65;;;25.60;99.90;;;;;;5043491;28;20755;-75
2021/06/03 09:54:21;;;;;;;5.07;4.68;;;25.70;99.90;;;;;;5047971;28;20804;-75
2021/06/03 09:56:51;;;;;;;7.90;5.43;;;25.90;99.90;;;;;;5044958;28;20228;-76
2021/06/03 09:59:23;;;;;;;4.90;4.50;;;26.00;99.90;;;;;;5043491;28;20195;-76
2021/06/03 10:02:02;;;;;;;5.82;5.32;;;25.90;99.90;;;;;;5043013;28;20705;-76
2021/06/03 10:04:38;;;;;;;5.20;4.70;;;26.00;99.90;;;;;;5042047;28;20207;-78
2021/06/03 10:07:11;;;;;;;5.38;4.88;;;26.10;99.90;;;;;;5043202;28;20223;-75
2021/06/03 10:09:45;;;;;;;4.43;4.03;;;26.10;99.90;;;;;;5056730;28;20204;-78
2021/06/03 10:12:15;;;;;;;7.68;4.97;;;26.30;99.90;;;;;;5048241;28;20215;-75
2021/06/03 10:14:43;;;;;;;7.05;6.47;;;26.30;99.90;;;;;;5042949;28;20338;-78
2021/06/03 10:17:16;;;;;;;5.03;4.63;;;26.40;99.90;;;;;;5042332;28;20246;-76
2021/06/03 10:19:43;;;;;;;4.95;4.55;;;26.20;99.90;;;;;;5042926;28;20206;-75
2021/06/03 10:22:13;;;;;;;6.25;5.10;;;26.20;99.90;;;;;;5042774;28;20207;-75
2021/06/03 10:24:52;;;;;;;5.57;4.40;;;26.20;99.90;;;;;;5041992;28;20245;-78
2021/06/03 10:27:20;;;;;;;6.15;4.80;;;26.20;99.90;;;;;;5040952;28;20222;-78
2021/06/03 10:29:48;;;;;;;4.80;4.40;;;25.90;99.90;;;;;;5040571;28;20191;-75
2021/06/03 10:32:15;;;;;;;5.28;4.88;;;25.90;99.90;;;;;;5033881;28;20257;-75
2021/06/03 10:34:44;;;;;;;5.03;4.25;;;26.10;99.90;;;;;;5042330;28;20357;-75
2021/06/03 10:37:12;;;;;;;6.22;5.72;;;26.30;99.90;;;;;;5042204;28;20219;-77
2021/06/03 10:39:41;;;;;;;5.95;5.38;;;26.40;99.90;;;;;;5041763;28;20209;-77
2021/06/03 10:42:11;;;;;;;4.30;4.00;;;26.30;99.90;;;;;;5039591;28;20211;-77
2021/06/03 10:44:38;;;;;;;6.25;4.35;;;26.30;99.90;;;;;;5044927;28;20218;-77
2021/06/03 10:47:06;;;;;;;5.43;4.95;;;26.30;99.90;;;;;;5039127;28;20222;-78
2021/06/03 10:49:33;;;;;;;5.57;4.95;;;26.40;99.90;;;;;;5041032;28;20199;-75
2021/06/03 10:52:07;;;;;;;5.50;4.97;;;26.40;99.90;;;;;;5040369;28;20284;-75
2021/06/03 10:54:50;;;;;;;4.53;4.13;;;26.40;99.90;;;;;;5039652;28;20279;-75
2021/06/03 10:57:20;;;;;;;3.95;3.65;;;26.80;99.90;;;;;;5062570;28;20229;-77
2021/06/03 10:59:49;;;;;;;3.55;3.30;;;27.00;99.90;;;;;;5040058;28;20203;-77
2021/06/03 11:02:17;;;;;;;3.60;3.30;;;27.50;99.90;;;;;;5052251;28;20222;-78
2021/06/03 11:04:45;;;;;;;4.03;3.72;;;28.00;99.90;;;;;;5040844;28;20230;-75
2021/06/03 11:07:13;;;;;;;4.22;3.30;;;28.20;99.90;;;;;;5038077;28;20219;-78
2021/06/03 11:09:43;;;;;;;3.40;3.15;;;28.00;99.90;;;;;;5041612;28;20195;-77
2021/06/03 11:12:20;;;;;;;4.35;3.50;;;27.80;99.90;;;;;;5037242;28;20219;-75
2021/06/03 11:15:08;;;;;;;4.57;3.60;;;27.80;99.90;;;;;;5040468;28;20632;-75
2021/06/03 11:18:02;;;;;;;3.88;3.58;;;27.90;99.90;;;;;;5023001;28;20257;-78
2021/06/03 11:20:52;;;;;;;4.18;3.75;;;27.80;99.90;;;;;;5019183;28;20200;-75
2021/06/03 11:23:55;;;;;;;5.05;3.53;;;27.70;99.90;;;;;;5010993;28;20223;-75
2021/06/03 11:26:52;;;;;;;3.35;3.13;;;27.60;99.90;;;;;;5033809;28;20219;-75
2021/06/03 11:29:22;;;;;;;4.07;3.10;;;27.80;99.90;;;;;;5037161;28;20214;-77
2021/06/03 11:31:52;;;;;;;3.13;2.85;;;28.00;99.90;;;;;;5028575;28;20302;-75
2021/06/03 11:34:21;;;;;;;5.35;3.13;;;28.20;99.90;;;;;;5021362;28;20193;-78
2021/06/03 11:36:58;;;;;;;4.80;3.30;;;28.30;99.90;;;;;;5028580;28;20262;-76
2021/06/03 11:39:37;;;;;;;3.20;2.97;;;28.30;99.90;;;;;;5027535;28;20805;-75
2021/06/03 11:42:27;;;;;;;3.00;2.80;;;28.40;99.90;;;;;;5034928;28;20302;-75
2021/06/03 11:45:29;;;;;;;3.25;2.83;;;28.70;99.90;;;;;;5028984;28;20211;-74
2021/06/03 11:48:14;;;;;;;2.90;2.70;;;28.80;99.90;;;;;;5019933;28;20212;-77
2021/06/03 11:50:52;;;;;;;2.90;2.70;;;28.90;99.90;;;;;;5021233;28;20291;-76
2021/06/03 11:53:21;;;;;;;2.80;2.60;;;29.10;99.90;;;;;;5017159;28;20318;-78
2021/06/03 11:55:51;;;;;;;2.55;2.35;;;29.10;99.90;;;;;;5033696;28;20302;-77
2021/06/03 11:58:30;;;;;;;3.08;2.78;;;29.10;99.90;;;;;;5019950;28;20643;-78
2021/06/03 12:01:03;;;;;;;3.00;2.80;;;29.10;99.90;;;;;;5019960;28;20225;-76
2021/06/03 12:03:39;;;;;;;3.35;2.75;;;29.00;99.50;;;;;;5019864;28;20256;-75
2021/06/03 12:06:08;;;;;;;2.90;2.33;;;29.10;99.30;;;;;;5099497;22;20285;-74
2021/06/03 12:08:42;;;;;;;2.58;2.38;;;29.10;99.50;;;;;;5003826;28;20234;-79
2021/06/03 12:11:15;;;;;;;3.13;2.50;;;29.00;97.80;;;;;;5006340;28;20244;-76
2021/06/03 12:13:43;;;;;;;2.67;2.42;;;29.00;98.10;;;;;;4986677;28;20223;-74
2021/06/03 12:16:11;;;;;;;2.50;2.30;;;29.10;98.40;;;;;;4985600;28;20721;-73
2021/06/03 12:18:40;;;;;;;3.00;2.60;;;29.10;97.70;;;;;;4984313;28;20259;-76
2021/06/03 12:21:10;;;;;;;2.33;2.17;;;29.30;97.40;;;;;;4987183;28;20284;-74
2021/06/03 12:23:47;;;;;;;7.10;2.40;;;29.50;98.20;;;;;;4986733;28;20220;-74
2021/06/03 12:26:15;;;;;;;2.92;2.03;;;29.50;97.10;;;;;;4986042;28;20327;-75
2021/06/03 12:28:42;;;;;;;2.67;2.13;;;29.60;97.20;;;;;;4985619;28;20882;-75
2021/06/03 12:31:16;;;;;;;2.38;2.17;;;29.70;96.10;;;;;;4985437;28;20303;-74
2021/06/03 12:33:43;;;;;;;2.80;2.30;;;29.80;96.10;;;;;;4984626;28;20295;-74
2021/06/03 12:36:10;;;;;;;2.40;2.20;;;29.50;95.90;;;;;;4985210;28;20303;-75
2021/06/03 12:38:38;;;;;;;2.13;2.03;;;29.00;95.40;;;;;;4981361;28;20235;-79
2021/06/03 12:41:08;;;;;;;2.35;2.15;;;28.50;96.00;;;;;;4980497;28;20204;-75
2021/06/03 12:43:38;;;;;;;1.90;1.80;;;28.20;96.70;;;;;;4979717;28;20221;-74
2021/06/03 12:46:06;;;;;;;2.25;2.15;;;28.10;97.30;;;;;;4981538;28;20256;-75
2021/06/03 12:48:34;;;;;;;2.10;1.90;;;28.10;97.70;;;;;;4979499;28;20696;-76
2021/06/03 12:51:02;;;;;;;2.40;2.20;;;28.10;97.20;;;;;;4979852;28;20281;-76
2021/06/03 12:53:29;;;;;;;2.33;2.13;;;28.60;96.60;;;;;;4978716;28;20232;-81
2021/06/03 12:55:56;;;;;;;2.33;2.22;;;29.00;94.80;;;;;;4982451;28;20218;-73
2021/06/03 12:58:25;;;;;;;3.03;2.10;;;29.30;94.70;;;;;;4981446;28;20248;-75